sensor_id;sensor_type;location;lat;lon;timestamp;P1;durP1;ratioP1;P2;durP2;ratioP2
51824;SDS011;37879;52.986;6.282;2022-09-01T00:01:24;2.97;;;1.73;;
51824;SDS011;37879;52.986;6.282;2022-09-01T00:03:51;2.58;;;1.70;;
51824;SDS011;37879;52.986;6.282;2022-09-01T00:06:18;3.33;;;1.50;;
51824;SDS011;37879;52.986;6.282;2022-09-01T00:08:53;3.35;;;1.55;;
51824;SDS011;37879;52.986;6.282;2022-09-01T00:11:23;5.50;;;1.67;;
51824;SDS011;37879;52.986;6.282;2022-09-01T00:13:50;4.13;;;1.27;;
51824;SDS011;37879;52.986;6.282;2022-09-01T00:16:37;6.57;;;1.83;;
51824;SDS011;37879;52.986;6.282;2022-09-01T00:19:02;3.67;;;1.38;;
51824;SDS011;37879;52.986;6.282;2022-09-01T00:21:30;3.72;;;1.42;;
51824;SDS011;37879;52.986;6.282;2022-09-01T00:23:57;3.42;;;2.05;;
51824;SDS011;37879;52.986;6.282;2022-09-01T00:26:23;3.25;;;1.73;;
51824;SDS011;37879;52.986;6.282;2022-09-01T00:28:50;3.22;;;1.70;;
51824;SDS011;37879;52.986;6.282;2022-09-01T00:31:16;4.47;;;1.48;;
51824;SDS011;37879;52.986;6.282;2022-09-01T00:33:46;3.60;;;1.58;;
51824;SDS011;37879;52.986;6.282;2022-09-01T00:36:12;5.00;;;1.73;;
51824;SDS011;37879;52.986;6.282;2022-09-01T00:38:39;3.05;;;1.48;;
51824;SDS011;37879;52.986;6.282;2022-09-01T00:41:05;13.13;;;3.47;;
51824;SDS011;37879;52.986;6.282;2022-09-01T00:43:49;4.97;;;1.55;;
51824;SDS011;37879;52.986;6.282;2022-09-01T00:46:20;2.85;;;1.63;;
51824;SDS011;37879;52.986;6.282;2022-09-01T00:48:52;3.85;;;1.52;;
51824;SDS011;37879;52.986;6.282;2022-09-01T00:51:18;1.98;;;1.58;;
51824;SDS011;37879;52.986;6.282;2022-09-01T00:53:44;4.47;;;2.17;;
51824;SDS011;37879;52.986;6.282;2022-09-01T00:56:11;3.42;;;1.70;;
51824;SDS011;37879;52.986;6.282;2022-09-01T00:58:38;3.80;;;2.13;;
51824;SDS011;37879;52.986;6.282;2022-09-01T01:01:05;2.72;;;1.60;;
51824;SDS011;37879;52.986;6.282;2022-09-01T01:03:31;3.35;;;1.83;;
51824;SDS011;37879;52.986;6.282;2022-09-01T01:05:58;4.43;;;1.50;;
51824;SDS011;37879;52.986;6.282;2022-09-01T01:08:28;2.90;;;1.23;;
51824;SDS011;37879;52.986;6.282;2022-09-01T01:11:04;2.75;;;1.83;;
51824;SDS011;37879;52.986;6.282;2022-09-01T01:13:31;5.07;;;1.70;;
51824;SDS011;37879;52.986;6.282;2022-09-01T01:16:00;1.73;;;1.10;;
51824;SDS011;37879;52.986;6.282;2022-09-01T01:18:27;2.67;;;1.77;;
51824;SDS011;37879;52.986;6.282;2022-09-01T01:20:56;2.75;;;1.60;;
51824;SDS011;37879;52.986;6.282;2022-09-01T01:23:47;3.47;;;1.77;;
51824;SDS011;37879;52.986;6.282;2022-09-01T01:26:16;3.38;;;1.40;;
51824;SDS011;37879;52.986;6.282;2022-09-01T01:28:43;3.05;;;1.33;;
51824;SDS011;37879;52.986;6.282;2022-09-01T01:31:11;3.33;;;1.40;;
51824;SDS011;37879;52.986;6.282;2022-09-01T01:33:39;2.80;;;1.48;;
51824;SDS011;37879;52.986;6.282;2022-09-01T01:36:13;2.55;;;1.35;;
51824;SDS011;37879;52.986;6.282;2022-09-01T01:38:41;2.38;;;1.52;;
51824;SDS011;37879;52.986;6.282;2022-09-01T01:41:08;3.00;;;1.35;;
51824;SDS011;37879;52.986;6.282;2022-09-01T01:43:35;3.83;;;1.33;;
51824;SDS011;37879;52.986;6.282;2022-09-01T01:46:03;3.42;;;1.63;;
51824;SDS011;37879;52.986;6.282;2022-09-01T01:48:30;2.28;;;1.40;;
51824;SDS011;37879;52.986;6.282;2022-09-01T01:50:59;5.78;;;1.73;;
51824;SDS011;37879;52.986;6.282;2022-09-01T01:53:25;2.20;;;1.10;;
51824;SDS011;37879;52.986;6.282;2022-09-01T01:55:52;2.70;;;1.70;;
51824;SDS011;37879;52.986;6.282;2022-09-01T01:58:19;1.80;;;1.20;;
51824;SDS011;37879;52.986;6.282;2022-09-01T02:00:49;2.53;;;1.20;;
51824;SDS011;37879;52.986;6.282;2022-09-01T02:03:17;1.92;;;1.40;;
51824;SDS011;37879;52.986;6.282;2022-09-01T02:05:48;2.65;;;1.15;;
51824;SDS011;37879;52.986;6.282;2022-09-01T02:08:15;3.45;;;1.27;;
51824;SDS011;37879;52.986;6.282;2022-09-01T02:10:47;2.47;;;1.30;;
51824;SDS011;37879;52.986;6.282;2022-09-01T02:13:14;3.53;;;1.35;;
51824;SDS011;37879;52.986;6.282;2022-09-01T02:15:41;3.83;;;1.63;;
51824;SDS011;37879;52.986;6.282;2022-09-01T02:18:17;3.13;;;1.13;;
51824;SDS011;37879;52.986;6.282;2022-09-01T02:20:45;4.13;;;1.45;;
51824;SDS011;37879;52.986;6.282;2022-09-01T02:23:12;1.80;;;1.30;;
51824;SDS011;37879;52.986;6.282;2022-09-01T02:25:41;2.75;;;1.25;;
51824;SDS011;37879;52.986;6.282;2022-09-01T02:28:09;2.28;;;1.10;;
51824;SDS011;37879;52.986;6.282;2022-09-01T02:30:50;2.63;;;1.02;;
51824;SDS011;37879;52.986;6.282;2022-09-01T02:33:19;3.95;;;1.08;;
51824;SDS011;37879;52.986;6.282;2022-09-01T02:35:53;3.42;;;1.38;;
51824;SDS011;37879;52.986;6.282;2022-09-01T02:38:20;4.95;;;1.00;;
51824;SDS011;37879;52.986;6.282;2022-09-01T02:40:50;3.38;;;1.67;;
51824;SDS011;37879;52.986;6.282;2022-09-01T02:43:17;2.13;;;1.30;;
51824;SDS011;37879;52.986;6.282;2022-09-01T02:45:49;2.72;;;1.20;;
51824;SDS011;37879;52.986;6.282;2022-09-01T02:48:27;2.45;;;1.40;;
51824;SDS011;37879;52.986;6.282;2022-09-01T02:50:56;1.90;;;1.17;;
51824;SDS011;37879;52.986;6.282;2022-09-01T02:53:23;2.70;;;1.42;;
51824;SDS011;37879;52.986;6.282;2022-09-01T02:55:50;1.83;;;0.90;;
51824;SDS011;37879;52.986;6.282;2022-09-01T02:58:16;2.22;;;1.40;;
51824;SDS011;37879;52.986;6.282;2022-09-01T03:00:44;1.67;;;1.00;;
51824;SDS011;37879;52.986;6.282;2022-09-01T03:03:10;2.90;;;1.30;;
51824;SDS011;37879;52.986;6.282;2022-09-01T03:05:37;2.30;;;1.00;;
51824;SDS011;37879;52.986;6.282;2022-09-01T03:08:08;2.35;;;1.27;;
51824;SDS011;37879;52.986;6.282;2022-09-01T03:10:38;1.65;;;0.90;;
51824;SDS011;37879;52.986;6.282;2022-09-01T03:13:10;1.42;;;0.90;;
51824;SDS011;37879;52.986;6.282;2022-09-01T03:15:37;2.30;;;1.08;;
51824;SDS011;37879;52.986;6.282;2022-09-01T03:18:03;2.33;;;1.10;;
51824;SDS011;37879;52.986;6.282;2022-09-01T03:20:31;3.67;;;1.15;;
51824;SDS011;37879;52.986;6.282;2022-09-01T03:22:58;2.88;;;1.27;;
51824;SDS011;37879;52.986;6.282;2022-09-01T03:25:25;2.25;;;1.33;;
51824;SDS011;37879;52.986;6.282;2022-09-01T03:27:53;4.18;;;1.20;;
51824;SDS011;37879;52.986;6.282;2022-09-01T03:30:26;2.67;;;1.27;;
51824;SDS011;37879;52.986;6.282;2022-09-01T03:32:54;2.72;;;0.95;;
51824;SDS011;37879;52.986;6.282;2022-09-01T03:35:20;3.75;;;1.20;;
51824;SDS011;37879;52.986;6.282;2022-09-01T03:37:47;2.58;;;1.25;;
51824;SDS011;37879;52.986;6.282;2022-09-01T03:40:13;1.92;;;1.13;;
51824;SDS011;37879;52.986;6.282;2022-09-01T03:42:43;4.22;;;1.20;;
51824;SDS011;37879;52.986;6.282;2022-09-01T03:45:09;2.00;;;1.20;;
51824;SDS011;37879;52.986;6.282;2022-09-01T03:47:40;2.35;;;1.20;;
51824;SDS011;37879;52.986;6.282;2022-09-01T03:50:08;2.13;;;1.00;;
51824;SDS011;37879;52.986;6.282;2022-09-01T03:52:44;1.83;;;1.08;;
51824;SDS011;37879;52.986;6.282;2022-09-01T03:55:10;3.67;;;1.30;;
51824;SDS011;37879;52.986;6.282;2022-09-01T03:57:37;3.03;;;1.52;;
51824;SDS011;37879;52.986;6.282;2022-09-01T04:00:06;3.10;;;1.02;;
51824;SDS011;37879;52.986;6.282;2022-09-01T04:02:37;1.80;;;1.30;;
51824;SDS011;37879;52.986;6.282;2022-09-01T04:05:04;2.67;;;1.30;;
51824;SDS011;37879;52.986;6.282;2022-09-01T04:07:31;1.83;;;1.30;;
51824;SDS011;37879;52.986;6.282;2022-09-01T04:09:57;3.03;;;1.42;;
51824;SDS011;37879;52.986;6.282;2022-09-01T04:12:23;4.78;;;1.40;;
51824;SDS011;37879;52.986;6.282;2022-09-01T04:14:49;2.92;;;1.02;;
51824;SDS011;37879;52.986;6.282;2022-09-01T04:17:16;1.98;;;1.20;;
51824;SDS011;37879;52.986;6.282;2022-09-01T04:20:00;1.80;;;1.20;;
51824;SDS011;37879;52.986;6.282;2022-09-01T04:22:32;1.98;;;1.27;;
51824;SDS011;37879;52.986;6.282;2022-09-01T04:25:03;2.65;;;1.25;;
51824;SDS011;37879;52.986;6.282;2022-09-01T04:27:29;4.15;;;1.42;;
51824;SDS011;37879;52.986;6.282;2022-09-01T04:29:55;2.65;;;1.15;;
51824;SDS011;37879;52.986;6.282;2022-09-01T04:32:21;3.15;;;1.23;;
51824;SDS011;37879;52.986;6.282;2022-09-01T04:34:48;2.58;;;1.23;;
51824;SDS011;37879;52.986;6.282;2022-09-01T04:37:16;2.97;;;1.60;;
51824;SDS011;37879;52.986;6.282;2022-09-01T04:39:47;1.73;;;1.30;;
51824;SDS011;37879;52.986;6.282;2022-09-01T04:42:16;1.83;;;1.10;;
51824;SDS011;37879;52.986;6.282;2022-09-01T04:44:44;2.78;;;1.40;;
51824;SDS011;37879;52.986;6.282;2022-09-01T04:47:11;2.40;;;1.40;;
51824;SDS011;37879;52.986;6.282;2022-09-01T04:49:39;4.20;;;1.20;;
51824;SDS011;37879;52.986;6.282;2022-09-01T04:52:05;3.75;;;1.70;;
51824;SDS011;37879;52.986;6.282;2022-09-01T04:54:31;3.13;;;1.25;;
51824;SDS011;37879;52.986;6.282;2022-09-01T04:56:59;2.88;;;1.73;;
51824;SDS011;37879;52.986;6.282;2022-09-01T04:59:25;3.78;;;1.80;;
51824;SDS011;37879;52.986;6.282;2022-09-01T05:01:53;2.67;;;1.30;;
51824;SDS011;37879;52.986;6.282;2022-09-01T05:04:22;2.90;;;1.45;;
51824;SDS011;37879;52.986;6.282;2022-09-01T05:06:50;9.20;;;2.10;;
51824;SDS011;37879;52.986;6.282;2022-09-01T05:09:20;2.83;;;1.90;;
51824;SDS011;37879;52.986;6.282;2022-09-01T05:11:46;2.25;;;1.40;;
51824;SDS011;37879;52.986;6.282;2022-09-01T05:14:14;4.78;;;1.70;;
51824;SDS011;37879;52.986;6.282;2022-09-01T05:16:43;3.58;;;1.67;;
51824;SDS011;37879;52.986;6.282;2022-09-01T05:19:09;4.20;;;1.50;;
51824;SDS011;37879;52.986;6.282;2022-09-01T05:21:39;3.35;;;1.70;;
51824;SDS011;37879;52.986;6.282;2022-09-01T05:24:09;2.80;;;1.45;;
51824;SDS011;37879;52.986;6.282;2022-09-01T05:26:35;3.08;;;1.75;;
51824;SDS011;37879;52.986;6.282;2022-09-01T05:29:04;3.45;;;1.50;;
51824;SDS011;37879;52.986;6.282;2022-09-01T05:31:38;2.25;;;1.42;;
51824;SDS011;37879;52.986;6.282;2022-09-01T05:34:04;3.28;;;1.98;;
51824;SDS011;37879;52.986;6.282;2022-09-01T05:36:32;4.22;;;1.67;;
51824;SDS011;37879;52.986;6.282;2022-09-01T05:38:58;2.50;;;1.30;;
51824;SDS011;37879;52.986;6.282;2022-09-01T05:41:26;5.10;;;1.98;;
51824;SDS011;37879;52.986;6.282;2022-09-01T05:43:52;3.78;;;1.55;;
51824;SDS011;37879;52.986;6.282;2022-09-01T05:46:22;2.95;;;1.60;;
51824;SDS011;37879;52.986;6.282;2022-09-01T05:48:51;3.38;;;1.85;;
51824;SDS011;37879;52.986;6.282;2022-09-01T05:51:18;3.75;;;1.50;;
51824;SDS011;37879;52.986;6.282;2022-09-01T05:53:47;2.58;;;1.50;;
51824;SDS011;37879;52.986;6.282;2022-09-01T05:56:16;4.82;;;1.50;;
51824;SDS011;37879;52.986;6.282;2022-09-01T05:58:43;3.42;;;1.50;;
51824;SDS011;37879;52.986;6.282;2022-09-01T06:01:14;3.13;;;1.70;;
51824;SDS011;37879;52.986;6.282;2022-09-01T06:03:41;2.55;;;1.52;;
51824;SDS011;37879;52.986;6.282;2022-09-01T06:06:08;3.20;;;1.63;;
51824;SDS011;37879;52.986;6.282;2022-09-01T06:08:36;2.30;;;1.13;;
51824;SDS011;37879;52.986;6.282;2022-09-01T06:11:03;2.40;;;1.40;;
51824;SDS011;37879;52.986;6.282;2022-09-01T06:13:37;4.35;;;1.63;;
51824;SDS011;37879;52.986;6.282;2022-09-01T06:16:09;6.50;;;1.83;;
51824;SDS011;37879;52.986;6.282;2022-09-01T06:18:36;3.72;;;1.70;;
51824;SDS011;37879;52.986;6.282;2022-09-01T06:21:03;7.05;;;1.65;;
51824;SDS011;37879;52.986;6.282;2022-09-01T06:23:32;3.10;;;1.40;;
51824;SDS011;37879;52.986;6.282;2022-09-01T06:26:00;2.42;;;1.45;;
51824;SDS011;37879;52.986;6.282;2022-09-01T06:28:28;2.80;;;1.67;;
51824;SDS011;37879;52.986;6.282;2022-09-01T06:30:55;4.10;;;1.48;;
51824;SDS011;37879;52.986;6.282;2022-09-01T06:33:22;5.13;;;1.63;;
51824;SDS011;37879;52.986;6.282;2022-09-01T06:35:52;2.50;;;1.65;;
51824;SDS011;37879;52.986;6.282;2022-09-01T06:38:19;2.88;;;1.48;;
51824;SDS011;37879;52.986;6.282;2022-09-01T06:40:46;2.42;;;1.63;;
51824;SDS011;37879;52.986;6.282;2022-09-01T06:43:13;2.88;;;1.55;;
51824;SDS011;37879;52.986;6.282;2022-09-01T06:45:41;3.63;;;1.58;;
51824;SDS011;37879;52.986;6.282;2022-09-01T06:48:08;2.67;;;1.42;;
51824;SDS011;37879;52.986;6.282;2022-09-01T06:50:39;2.00;;;1.50;;
51824;SDS011;37879;52.986;6.282;2022-09-01T06:53:07;2.92;;;1.40;;
51824;SDS011;37879;52.986;6.282;2022-09-01T06:55:38;2.80;;;1.83;;
51824;SDS011;37879;52.986;6.282;2022-09-01T06:58:06;2.45;;;1.58;;
51824;SDS011;37879;52.986;6.282;2022-09-01T07:00:34;1.83;;;1.13;;
51824;SDS011;37879;52.986;6.282;2022-09-01T07:03:07;3.17;;;1.80;;
51824;SDS011;37879;52.986;6.282;2022-09-01T07:05:37;2.58;;;1.55;;
51824;SDS011;37879;52.986;6.282;2022-09-01T07:08:04;3.90;;;1.60;;
51824;SDS011;37879;52.986;6.282;2022-09-01T07:10:37;2.10;;;1.30;;
51824;SDS011;37879;52.986;6.282;2022-09-01T07:13:05;3.25;;;1.90;;
51824;SDS011;37879;52.986;6.282;2022-09-01T07:15:36;3.47;;;1.73;;
51824;SDS011;37879;52.986;6.282;2022-09-01T07:18:02;3.40;;;1.40;;
51824;SDS011;37879;52.986;6.282;2022-09-01T07:20:28;1.98;;;1.70;;
51824;SDS011;37879;52.986;6.282;2022-09-01T07:22:57;2.67;;;1.20;;
51824;SDS011;37879;52.986;6.282;2022-09-01T07:25:24;4.03;;;1.70;;
51824;SDS011;37879;52.986;6.282;2022-09-01T07:27:50;7.47;;;1.90;;
51824;SDS011;37879;52.986;6.282;2022-09-01T07:30:17;3.45;;;1.77;;
51824;SDS011;37879;52.986;6.282;2022-09-01T07:32:44;3.20;;;1.58;;
51824;SDS011;37879;52.986;6.282;2022-09-01T07:35:12;2.28;;;1.13;;
51824;SDS011;37879;52.986;6.282;2022-09-01T07:37:38;1.85;;;1.40;;
51824;SDS011;37879;52.986;6.282;2022-09-01T07:40:08;4.60;;;1.83;;
51824;SDS011;37879;52.986;6.282;2022-09-01T07:42:35;3.08;;;1.73;;
51824;SDS011;37879;52.986;6.282;2022-09-01T07:45:08;5.13;;;1.60;;
51824;SDS011;37879;52.986;6.282;2022-09-01T07:47:35;2.55;;;1.20;;
51824;SDS011;37879;52.986;6.282;2022-09-01T07:50:05;3.60;;;1.70;;
51824;SDS011;37879;52.986;6.282;2022-09-01T07:52:36;4.20;;;1.08;;
51824;SDS011;37879;52.986;6.282;2022-09-01T07:55:10;2.83;;;1.50;;
51824;SDS011;37879;52.986;6.282;2022-09-01T07:57:38;3.63;;;1.63;;
51824;SDS011;37879;52.986;6.282;2022-09-01T08:00:06;3.35;;;1.70;;
51824;SDS011;37879;52.986;6.282;2022-09-01T08:02:33;3.40;;;1.40;;
51824;SDS011;37879;52.986;6.282;2022-09-01T08:05:00;2.08;;;1.50;;
51824;SDS011;37879;52.986;6.282;2022-09-01T08:07:26;3.20;;;1.50;;
51824;SDS011;37879;52.986;6.282;2022-09-01T08:09:52;4.95;;;1.30;;
51824;SDS011;37879;52.986;6.282;2022-09-01T08:12:18;2.22;;;1.20;;
51824;SDS011;37879;52.986;6.282;2022-09-01T08:14:44;2.95;;;1.23;;
51824;SDS011;37879;52.986;6.282;2022-09-01T08:17:11;4.13;;;1.20;;
51824;SDS011;37879;52.986;6.282;2022-09-01T08:19:37;2.20;;;1.58;;
51824;SDS011;37879;52.986;6.282;2022-09-01T08:22:03;2.83;;;1.50;;
51824;SDS011;37879;52.986;6.282;2022-09-01T08:24:29;2.50;;;1.48;;
51824;SDS011;37879;52.986;6.282;2022-09-01T08:26:55;2.00;;;1.30;;
51824;SDS011;37879;52.986;6.282;2022-09-01T08:29:21;1.98;;;1.10;;
51824;SDS011;37879;52.986;6.282;2022-09-01T08:31:48;1.95;;;1.30;;
51824;SDS011;37879;52.986;6.282;2022-09-01T08:34:14;2.08;;;0.98;;
51824;SDS011;37879;52.986;6.282;2022-09-01T08:36:41;4.80;;;1.35;;
51824;SDS011;37879;52.986;6.282;2022-09-01T08:39:07;3.63;;;1.63;;
51824;SDS011;37879;52.986;6.282;2022-09-01T08:46:53;2.22;;;1.23;;
51824;SDS011;37879;52.986;6.282;2022-09-01T08:49:21;3.25;;;0.90;;
51824;SDS011;37879;52.986;6.282;2022-09-01T08:51:52;2.42;;;1.00;;
51824;SDS011;37879;52.986;6.282;2022-09-01T08:54:28;2.15;;;1.00;;
51824;SDS011;37879;52.986;6.282;2022-09-01T08:57:00;3.78;;;1.23;;
51824;SDS011;37879;52.986;6.282;2022-09-01T08:59:28;1.90;;;1.20;;
51824;SDS011;37879;52.986;6.282;2022-09-01T09:02:05;3.20;;;1.20;;
51824;SDS011;37879;52.986;6.282;2022-09-01T09:07:24;1.60;;;1.05;;
51824;SDS011;37879;52.986;6.282;2022-09-01T09:10:36;2.13;;;1.00;;
51824;SDS011;37879;52.986;6.282;2022-09-01T09:15:26;1.75;;;0.60;;
51824;SDS011;37879;52.986;6.282;2022-09-01T09:18:27;5.70;;;0.98;;
51824;SDS011;37879;52.986;6.282;2022-09-01T09:20:44;1.70;;;0.82;;
51824;SDS011;37879;52.986;6.282;2022-09-01T09:23:14;2.78;;;0.70;;
51824;SDS011;37879;52.986;6.282;2022-09-01T09:25:41;1.98;;;0.60;;
51824;SDS011;37879;52.986;6.282;2022-09-01T09:28:07;4.10;;;1.15;;
51824;SDS011;37879;52.986;6.282;2022-09-01T09:30:34;4.03;;;0.90;;
51824;SDS011;37879;52.986;6.282;2022-09-01T09:33:05;2.88;;;1.00;;
51824;SDS011;37879;52.986;6.282;2022-09-01T09:40:57;1.58;;;0.68;;
51824;SDS011;37879;52.986;6.282;2022-09-01T09:43:23;2.83;;;0.80;;
51824;SDS011;37879;52.986;6.282;2022-09-01T09:45:50;2.13;;;0.73;;
51824;SDS011;37879;52.986;6.282;2022-09-01T09:48:36;1.85;;;0.80;;
51824;SDS011;37879;52.986;6.282;2022-09-01T09:51:14;1.38;;;0.43;;
51824;SDS011;37879;52.986;6.282;2022-09-01T09:53:40;1.25;;;0.47;;
51824;SDS011;37879;52.986;6.282;2022-09-01T09:56:22;1.67;;;0.80;;
51824;SDS011;37879;52.986;6.282;2022-09-01T09:58:50;1.73;;;0.55;;
51824;SDS011;37879;52.986;6.282;2022-09-01T10:03:52;3.67;;;1.00;;
51824;SDS011;37879;52.986;6.282;2022-09-01T10:09:07;1.67;;;0.57;;
51824;SDS011;37879;52.986;6.282;2022-09-01T10:11:38;1.95;;;0.57;;
51824;SDS011;37879;52.986;6.282;2022-09-01T10:14:09;1.63;;;0.55;;
51824;SDS011;37879;52.986;6.282;2022-09-01T10:16:36;1.45;;;0.50;;
51824;SDS011;37879;52.986;6.282;2022-09-01T10:19:04;0.98;;;0.50;;
51824;SDS011;37879;52.986;6.282;2022-09-01T10:21:33;0.70;;;0.40;;
51824;SDS011;37879;52.986;6.282;2022-09-01T10:24:03;1.50;;;0.40;;
51824;SDS011;37879;52.986;6.282;2022-09-01T10:26:36;2.55;;;0.82;;
51824;SDS011;37879;52.986;6.282;2022-09-01T10:29:08;1.33;;;0.25;;
51824;SDS011;37879;52.986;6.282;2022-09-01T10:31:38;1.60;;;0.80;;
51824;SDS011;37879;52.986;6.282;2022-09-01T10:34:05;4.32;;;0.75;;
51824;SDS011;37879;52.986;6.282;2022-09-01T10:36:34;1.73;;;0.90;;
51824;SDS011;37879;52.986;6.282;2022-09-01T10:39:01;3.58;;;1.15;;
51824;SDS011;37879;52.986;6.282;2022-09-01T10:41:44;2.13;;;1.05;;
51824;SDS011;37879;52.986;6.282;2022-09-01T10:46:55;1.90;;;0.73;;
51824;SDS011;37879;52.986;6.282;2022-09-01T10:49:55;2.28;;;0.50;;
51824;SDS011;37879;52.986;6.282;2022-09-01T10:52:07;0.90;;;0.30;;
51824;SDS011;37879;52.986;6.282;2022-09-01T10:57:20;1.85;;;0.50;;
51824;SDS011;37879;52.986;6.282;2022-09-01T10:59:52;1.60;;;0.60;;
51824;SDS011;37879;52.986;6.282;2022-09-01T11:02:22;3.10;;;0.50;;
51824;SDS011;37879;52.986;6.282;2022-09-01T11:12:41;4.80;;;0.50;;
51824;SDS011;37879;52.986;6.282;2022-09-01T11:17:53;1.27;;;0.57;;
51824;SDS011;37879;52.986;6.282;2022-09-01T11:23:06;3.40;;;1.08;;
51824;SDS011;37879;52.986;6.282;2022-09-01T11:25:42;1.75;;;0.63;;
51824;SDS011;37879;52.986;6.282;2022-09-01T11:28:10;2.25;;;0.77;;
51824;SDS011;37879;52.986;6.282;2022-09-01T11:33:39;5.93;;;1.42;;
51824;SDS011;37879;52.986;6.282;2022-09-01T11:38:46;1.85;;;0.70;;
51824;SDS011;37879;52.986;6.282;2022-09-01T11:41:20;1.73;;;0.40;;
51824;SDS011;37879;52.986;6.282;2022-09-01T11:43:48;1.13;;;0.35;;
51824;SDS011;37879;52.986;6.282;2022-09-01T11:46:17;2.05;;;1.10;;
51824;SDS011;37879;52.986;6.282;2022-09-01T11:48:45;3.13;;;0.38;;
51824;SDS011;37879;52.986;6.282;2022-09-01T11:51:12;1.23;;;0.57;;
51824;SDS011;37879;52.986;6.282;2022-09-01T11:53:39;0.82;;;0.45;;
51824;SDS011;37879;52.986;6.282;2022-09-01T11:56:15;4.20;;;0.45;;
51824;SDS011;37879;52.986;6.282;2022-09-01T11:58:41;2.78;;;0.40;;
51824;SDS011;37879;52.986;6.282;2022-09-01T12:03:36;1.33;;;0.52;;
51824;SDS011;37879;52.986;6.282;2022-09-01T12:06:06;1.63;;;0.70;;
51824;SDS011;37879;52.986;6.282;2022-09-01T12:08:37;1.52;;;0.68;;
51824;SDS011;37879;52.986;6.282;2022-09-01T12:13:30;3.05;;;1.20;;
51824;SDS011;37879;52.986;6.282;2022-09-01T12:15:57;4.47;;;1.40;;
51824;SDS011;37879;52.986;6.282;2022-09-01T12:18:25;3.17;;;1.33;;
51824;SDS011;37879;52.986;6.282;2022-09-01T12:20:52;4.18;;;0.47;;
51824;SDS011;37879;52.986;6.282;2022-09-01T12:23:25;4.03;;;1.25;;
51824;SDS011;37879;52.986;6.282;2022-09-01T12:25:53;2.42;;;0.80;;
51824;SDS011;37879;52.986;6.282;2022-09-01T12:28:22;1.23;;;0.50;;
51824;SDS011;37879;52.986;6.282;2022-09-01T12:30:49;1.30;;;0.77;;
51824;SDS011;37879;52.986;6.282;2022-09-01T12:33:16;2.47;;;0.70;;
51824;SDS011;37879;52.986;6.282;2022-09-01T12:35:43;2.80;;;0.70;;
51824;SDS011;37879;52.986;6.282;2022-09-01T12:40:52;1.10;;;0.47;;
51824;SDS011;37879;52.986;6.282;2022-09-01T12:43:33;1.15;;;0.40;;
51824;SDS011;37879;52.986;6.282;2022-09-01T12:46:00;1.50;;;0.40;;
51824;SDS011;37879;52.986;6.282;2022-09-01T12:50:55;3.15;;;0.95;;
51824;SDS011;37879;52.986;6.282;2022-09-01T12:53:22;3.50;;;1.60;;
51824;SDS011;37879;52.986;6.282;2022-09-01T12:56:09;3.75;;;1.70;;
51824;SDS011;37879;52.986;6.282;2022-09-01T12:58:42;9.77;;;2.95;;
51824;SDS011;37879;52.986;6.282;2022-09-01T13:01:22;2.50;;;0.65;;
51824;SDS011;37879;52.986;6.282;2022-09-01T13:06:34;4.53;;;1.33;;
51824;SDS011;37879;52.986;6.282;2022-09-01T13:09:01;1.92;;;0.45;;
51824;SDS011;37879;52.986;6.282;2022-09-01T13:11:27;4.15;;;1.45;;
51824;SDS011;37879;52.986;6.282;2022-09-01T13:13:53;2.55;;;1.25;;
51824;SDS011;37879;52.986;6.282;2022-09-01T13:16:19;3.65;;;1.70;;
51824;SDS011;37879;52.986;6.282;2022-09-01T13:18:46;7.97;;;2.22;;
51824;SDS011;37879;52.986;6.282;2022-09-01T13:21:12;5.88;;;1.80;;
51824;SDS011;37879;52.986;6.282;2022-09-01T13:23:38;3.60;;;1.10;;
51824;SDS011;37879;52.986;6.282;2022-09-01T13:26:04;2.78;;;1.10;;
51824;SDS011;37879;52.986;6.282;2022-09-01T13:28:30;2.60;;;0.82;;
51824;SDS011;37879;52.986;6.282;2022-09-01T13:31:01;4.40;;;0.60;;
51824;SDS011;37879;52.986;6.282;2022-09-01T13:33:31;1.48;;;0.70;;
51824;SDS011;37879;52.986;6.282;2022-09-01T13:35:58;3.42;;;0.98;;
51824;SDS011;37879;52.986;6.282;2022-09-01T13:38:26;6.55;;;2.08;;
51824;SDS011;37879;52.986;6.282;2022-09-01T13:40:53;7.00;;;1.60;;
51824;SDS011;37879;52.986;6.282;2022-09-01T13:43:20;1.52;;;0.50;;
51824;SDS011;37879;52.986;6.282;2022-09-01T13:45:47;2.33;;;0.32;;
51824;SDS011;37879;52.986;6.282;2022-09-01T13:48:15;0.90;;;0.38;;
51824;SDS011;37879;52.986;6.282;2022-09-01T13:50:41;0.98;;;0.43;;
51824;SDS011;37879;52.986;6.282;2022-09-01T13:53:07;2.20;;;0.50;;
51824;SDS011;37879;52.986;6.282;2022-09-01T13:55:38;3.63;;;0.52;;
51824;SDS011;37879;52.986;6.282;2022-09-01T13:58:05;2.03;;;0.50;;
51824;SDS011;37879;52.986;6.282;2022-09-01T14:00:33;3.50;;;1.17;;
51824;SDS011;37879;52.986;6.282;2022-09-01T14:03:01;3.53;;;1.08;;
51824;SDS011;37879;52.986;6.282;2022-09-01T14:05:31;1.15;;;0.52;;
51824;SDS011;37879;52.986;6.282;2022-09-01T14:07:58;2.83;;;0.60;;
51824;SDS011;37879;52.986;6.282;2022-09-01T14:10:25;1.88;;;0.57;;
51824;SDS011;37879;52.986;6.282;2022-09-01T14:12:52;1.05;;;0.50;;
51824;SDS011;37879;52.986;6.282;2022-09-01T14:15:18;2.72;;;0.60;;
51824;SDS011;37879;52.986;6.282;2022-09-01T14:17:46;1.45;;;0.50;;
51824;SDS011;37879;52.986;6.282;2022-09-01T14:20:14;1.10;;;0.40;;
51824;SDS011;37879;52.986;6.282;2022-09-01T14:22:42;2.53;;;0.60;;
51824;SDS011;37879;52.986;6.282;2022-09-01T14:25:10;2.65;;;0.40;;
51824;SDS011;37879;52.986;6.282;2022-09-01T14:27:36;1.83;;;0.40;;
51824;SDS011;37879;52.986;6.282;2022-09-01T14:30:06;1.77;;;0.82;;
51824;SDS011;37879;52.986;6.282;2022-09-01T14:32:33;1.08;;;0.38;;
51824;SDS011;37879;52.986;6.282;2022-09-01T14:34:59;3.05;;;0.60;;
51824;SDS011;37879;52.986;6.282;2022-09-01T14:37:25;1.48;;;0.40;;
51824;SDS011;37879;52.986;6.282;2022-09-01T14:39:52;1.88;;;0.47;;
51824;SDS011;37879;52.986;6.282;2022-09-01T14:42:19;2.03;;;0.32;;
51824;SDS011;37879;52.986;6.282;2022-09-01T14:44:46;1.83;;;0.45;;
51824;SDS011;37879;52.986;6.282;2022-09-01T14:47:13;1.15;;;0.40;;
51824;SDS011;37879;52.986;6.282;2022-09-01T14:49:41;3.72;;;0.95;;
51824;SDS011;37879;52.986;6.282;2022-09-01T14:52:07;0.60;;;0.32;;
51824;SDS011;37879;52.986;6.282;2022-09-01T14:54:34;1.77;;;0.52;;
51824;SDS011;37879;52.986;6.282;2022-09-01T14:57:01;1.92;;;0.57;;
51824;SDS011;37879;52.986;6.282;2022-09-01T14:59:28;0.90;;;0.40;;
51824;SDS011;37879;52.986;6.282;2022-09-01T15:01:54;1.30;;;0.38;;
51824;SDS011;37879;52.986;6.282;2022-09-01T15:04:20;2.15;;;0.35;;
51824;SDS011;37879;52.986;6.282;2022-09-01T15:06:47;2.00;;;0.47;;
51824;SDS011;37879;52.986;6.282;2022-09-01T15:09:13;1.10;;;0.55;;
51824;SDS011;37879;52.986;6.282;2022-09-01T15:11:40;0.95;;;0.35;;
51824;SDS011;37879;52.986;6.282;2022-09-01T15:14:06;1.83;;;0.70;;
51824;SDS011;37879;52.986;6.282;2022-09-01T15:16:36;1.02;;;0.50;;
51824;SDS011;37879;52.986;6.282;2022-09-01T15:19:06;0.43;;;0.30;;
51824;SDS011;37879;52.986;6.282;2022-09-01T15:21:34;2.47;;;0.52;;
51824;SDS011;37879;52.986;6.282;2022-09-01T15:24:00;1.35;;;0.40;;
51824;SDS011;37879;52.986;6.282;2022-09-01T15:26:27;1.27;;;0.40;;
51824;SDS011;37879;52.986;6.282;2022-09-01T15:28:53;2.83;;;0.60;;
51824;SDS011;37879;52.986;6.282;2022-09-01T15:31:21;1.30;;;0.50;;
51824;SDS011;37879;52.986;6.282;2022-09-01T15:33:48;3.17;;;0.60;;
51824;SDS011;37879;52.986;6.282;2022-09-01T15:36:19;0.65;;;0.40;;
51824;SDS011;37879;52.986;6.282;2022-09-01T15:38:45;0.70;;;0.40;;
51824;SDS011;37879;52.986;6.282;2022-09-01T15:41:16;2.42;;;0.50;;
51824;SDS011;37879;52.986;6.282;2022-09-01T15:43:42;1.33;;;0.40;;
51824;SDS011;37879;52.986;6.282;2022-09-01T15:46:09;2.28;;;0.50;;
51824;SDS011;37879;52.986;6.282;2022-09-01T15:48:38;1.95;;;0.43;;
51824;SDS011;37879;52.986;6.282;2022-09-01T15:51:47;1.63;;;0.50;;
51824;SDS011;37879;52.986;6.282;2022-09-01T15:54:02;5.65;;;0.90;;
51824;SDS011;37879;52.986;6.282;2022-09-01T15:56:29;2.88;;;1.17;;